createdAt,value
2023-04-11T00:01:57.574Z,100.00
2023-04-11T00:04:25.695Z,100.00
2023-04-11T00:06:52.601Z,100.00
2023-04-11T00:09:19.582Z,100.00
2023-04-11T00:11:46.420Z,100.00
2023-04-11T00:14:13.354Z,100.00
2023-04-11T00:16:41.637Z,100.00
2023-04-11T00:19:09.645Z,100.00
2023-04-11T00:21:40.282Z,100.00
2023-04-11T00:24:08.449Z,100.00
2023-04-11T00:26:35.627Z,100.00
2023-04-11T00:29:02.398Z,100.00
2023-04-11T00:31:29.265Z,100.00
2023-04-11T00:33:56.026Z,100.00
2023-04-11T00:36:22.920Z,100.00
2023-04-11T00:38:49.784Z,100.00
2023-04-11T00:41:16.528Z,100.00
2023-04-11T00:43:43.413Z,100.00
2023-04-11T00:46:10.685Z,100.00
2023-04-11T00:48:37.681Z,100.00
2023-04-11T00:51:04.562Z,100.00
2023-04-11T00:53:33.022Z,100.00
2023-04-11T00:56:00.764Z,100.00
2023-04-11T00:58:28.676Z,100.00
2023-04-11T01:00:55.963Z,100.00
2023-04-11T01:03:23.047Z,100.00
2023-04-11T01:05:52.504Z,100.00
2023-04-11T01:08:20.901Z,100.00
2023-04-11T01:10:48.080Z,100.00
2023-04-11T01:13:15.542Z,100.00
2023-04-11T01:15:42.453Z,100.00
2023-04-11T01:18:09.667Z,100.00
2023-04-11T01:20:38.541Z,100.00
2023-04-11T01:23:06.528Z,100.00
2023-04-11T01:25:33.319Z,100.00
2023-04-11T01:28:00.158Z,100.00
2023-04-11T01:30:26.911Z,100.00
2023-04-11T01:32:53.890Z,100.00
2023-04-11T01:35:20.892Z,100.00
2023-04-11T01:37:47.676Z,100.00
2023-04-11T01:40:18.769Z,100.00
2023-04-11T01:42:47.028Z,100.00
2023-04-11T01:45:14.285Z,100.00
2023-04-11T01:47:41.172Z,100.00
2023-04-11T01:50:08.475Z,100.00
2023-04-11T01:52:35.249Z,100.00
2023-04-11T01:55:02.294Z,100.00
2023-04-11T01:57:29.103Z,100.00
2023-04-11T01:59:55.837Z,100.00
2023-04-11T02:02:22.744Z,100.00
2023-04-11T02:04:49.636Z,100.00
2023-04-11T02:07:16.390Z,100.00
2023-04-11T02:09:43.107Z,100.00
2023-04-11T02:12:09.946Z,100.00
2023-04-11T02:14:45.396Z,100.00
2023-04-11T02:17:13.164Z,100.00
2023-04-11T02:19:41.378Z,100.00
2023-04-11T02:22:11.376Z,100.00
2023-04-11T02:24:38.793Z,100.00
2023-04-11T02:27:05.504Z,100.00
2023-04-11T02:29:32.627Z,100.00
2023-04-11T02:31:59.587Z,100.00
2023-04-11T02:34:26.759Z,100.00
2023-04-11T02:36:53.660Z,100.00
2023-04-11T02:39:26.834Z,100.00
2023-04-11T02:41:53.524Z,100.00
2023-04-11T02:44:20.463Z,100.00
2023-04-11T02:46:47.311Z,100.00
2023-04-11T02:49:14.076Z,100.00
2023-04-11T02:51:41.160Z,100.00
2023-04-11T02:54:08.420Z,100.00
2023-04-11T02:56:37.980Z,100.00
2023-04-11T02:59:07.080Z,100.00
2023-04-11T03:01:34.420Z,100.00
2023-04-11T03:04:01.307Z,100.00
2023-04-11T03:06:28.321Z,100.00
2023-04-11T03:08:56.205Z,100.00
2023-04-11T03:11:23.342Z,100.00
2023-04-11T03:13:50.062Z,100.00
2023-04-11T03:16:16.856Z,100.00
2023-04-11T03:18:43.631Z,100.00
2023-04-11T03:21:11.627Z,100.00
2023-04-11T03:23:38.975Z,100.00
2023-04-11T03:26:06.653Z,100.00
2023-04-11T03:28:33.748Z,100.00
2023-04-11T03:31:00.695Z,100.00
2023-04-11T03:33:27.553Z,100.00
2023-04-11T03:35:54.438Z,100.00
2023-04-11T03:38:21.431Z,100.00
2023-04-11T03:40:48.364Z,100.00
2023-04-11T03:43:16.977Z,100.00
2023-04-11T03:45:43.924Z,100.00
2023-04-11T03:48:10.698Z,100.00
2023-04-11T03:50:37.594Z,100.00
2023-04-11T03:53:04.571Z,100.00
2023-04-11T03:55:31.659Z,100.00
2023-04-11T03:57:58.365Z,100.00
2023-04-11T04:00:25.137Z,100.00
2023-04-11T04:02:52.039Z,100.00
2023-04-11T04:05:19.059Z,100.00
2023-04-11T04:07:46.042Z,100.00
2023-04-11T04:10:12.891Z,100.00
2023-04-11T04:12:40.116Z,100.00
2023-04-11T04:15:07.371Z,100.00
2023-04-11T04:17:34.090Z,100.00
2023-04-11T04:20:01.086Z,100.00
2023-04-11T04:22:29.919Z,100.00
2023-04-11T04:24:58.334Z,100.00
2023-04-11T04:27:32.599Z,100.00
2023-04-11T04:30:04.206Z,100.00
2023-04-11T04:32:31.502Z,100.00
2023-04-11T04:34:58.800Z,100.00
2023-04-11T04:37:27.427Z,100.00
2023-04-11T04:39:55.636Z,100.00
2023-04-11T04:42:27.658Z,100.00
2023-04-11T04:44:56.255Z,100.00
2023-04-11T04:47:24.861Z,100.00
2023-04-11T04:49:57.389Z,100.00
2023-04-11T04:52:25.851Z,100.00
2023-04-11T04:54:53.393Z,100.00
2023-04-11T04:57:20.132Z,100.00
2023-04-11T04:59:47.263Z,100.00
2023-04-11T05:02:14.000Z,100.00
2023-04-11T05:04:42.178Z,100.00
2023-04-11T05:07:08.994Z,100.00
2023-04-11T05:09:35.788Z,100.00
2023-04-11T05:12:02.727Z,100.00
2023-04-11T05:14:29.424Z,100.00
2023-04-11T05:16:56.167Z,100.00
2023-04-11T05:19:22.966Z,100.00
2023-04-11T05:21:49.680Z,100.00
2023-04-11T05:24:16.688Z,100.00
2023-04-11T05:26:43.613Z,100.00
2023-04-11T05:29:12.030Z,100.00
2023-04-11T05:31:38.757Z,100.00
2023-04-11T05:34:05.522Z,100.00
2023-04-11T05:36:32.511Z,100.00
2023-04-11T05:38:59.258Z,100.00
2023-04-11T05:41:27.079Z,100.00
2023-04-11T05:43:54.065Z,100.00
2023-04-11T05:46:21.277Z,100.00
2023-04-11T05:48:48.069Z,100.00
2023-04-11T05:51:14.745Z,100.00
2023-04-11T05:53:41.549Z,100.00
2023-04-11T05:56:08.640Z,100.00
2023-04-11T05:58:37.107Z,100.00
2023-04-11T06:01:03.918Z,100.00
2023-04-11T06:03:30.845Z,100.00
2023-04-11T06:05:57.746Z,100.00
2023-04-11T06:08:24.529Z,100.00
2023-04-11T06:10:51.296Z,100.00
2023-04-11T06:13:18.155Z,100.00
2023-04-11T06:15:44.882Z,100.00
2023-04-11T06:18:13.066Z,100.00
2023-04-11T06:20:39.755Z,100.00
2023-04-11T06:23:06.556Z,100.00
2023-04-11T06:25:33.261Z,100.00
2023-04-11T06:27:59.940Z,100.00
2023-04-11T06:30:26.626Z,100.00
2023-04-11T06:32:53.634Z,100.00
2023-04-11T06:35:24.892Z,100.00
2023-04-11T06:37:52.423Z,100.00
2023-04-11T06:40:20.727Z,100.00
2023-04-11T06:42:47.821Z,100.00
2023-04-11T06:45:14.803Z,100.00
2023-04-11T06:47:41.619Z,100.00
2023-04-11T06:50:08.723Z,100.00
2023-04-11T06:52:35.540Z,100.00
2023-04-11T06:55:02.298Z,100.00
2023-04-11T06:57:29.105Z,100.00
2023-04-11T06:59:56.066Z,100.00
2023-04-11T07:02:25.364Z,100.00
2023-04-11T07:04:52.927Z,100.00
2023-04-11T07:07:19.752Z,100.00
2023-04-11T07:09:47.715Z,100.00
2023-04-11T07:12:14.481Z,100.00
2023-04-11T07:14:41.183Z,100.00
2023-04-11T07:17:07.989Z,100.00
2023-04-11T07:19:34.715Z,100.00
2023-04-11T07:22:01.608Z,100.00
2023-04-11T07:24:30.633Z,100.00
2023-04-11T07:27:01.930Z,100.00
2023-04-11T07:29:29.141Z,100.00
2023-04-11T07:31:56.096Z,100.00
2023-04-11T07:34:22.862Z,100.00
2023-04-11T07:36:50.236Z,100.00
2023-04-11T07:39:17.192Z,100.00
2023-04-11T07:41:44.954Z,100.00
2023-04-11T07:44:11.888Z,100.00
2023-04-11T07:46:38.596Z,100.00
2023-04-11T07:49:05.571Z,100.00
2023-04-11T07:51:33.198Z,100.00
2023-04-11T07:54:00.160Z,100.00
2023-04-11T07:56:26.986Z,99.61
2023-04-11T07:58:53.806Z,100.00
2023-04-11T08:01:25.884Z,99.73
2023-04-11T08:03:56.885Z,100.00
2023-04-11T08:06:24.131Z,100.00
2023-04-11T08:08:51.233Z,100.00
2023-04-11T08:11:20.652Z,100.00
2023-04-11T08:13:47.436Z,100.00
2023-04-11T08:16:15.932Z,100.00
2023-04-11T08:18:42.879Z,100.00
2023-04-11T08:21:12.394Z,100.00
2023-04-11T08:23:43.091Z,100.00
2023-04-11T08:26:12.090Z,98.29
2023-04-11T08:28:41.092Z,95.83
2023-04-11T08:31:10.778Z,85.83
2023-04-11T08:37:19.251Z,91.78
2023-04-11T08:39:46.070Z,88.76
2023-04-11T08:42:25.918Z,86.28
2023-04-11T08:45:00.892Z,85.76
2023-04-11T08:47:27.838Z,84.99
2023-04-11T08:49:55.149Z,88.33
2023-04-11T08:52:21.948Z,79.87
2023-04-11T08:54:49.174Z,79.60
2023-04-11T08:57:28.554Z,82.40
2023-04-11T08:59:56.963Z,80.24
2023-04-11T09:02:24.362Z,81.55
2023-04-11T09:04:51.996Z,83.59
2023-04-11T09:07:19.722Z,82.50
2023-04-11T09:09:46.682Z,79.10
2023-04-11T09:12:13.733Z,76.36
2023-04-11T09:14:43.427Z,76.33
2023-04-11T09:17:13.749Z,74.25
2023-04-11T09:19:46.891Z,77.52
2023-04-11T09:22:15.739Z,77.94
2023-04-11T09:24:43.057Z,82.79
2023-04-11T09:27:19.678Z,81.01
2023-04-11T09:29:48.312Z,77.48
2023-04-11T09:32:33.706Z,77.87
2023-04-11T09:35:24.121Z,74.76
2023-04-11T09:37:52.929Z,77.19
2023-04-11T09:40:23.190Z,76.25
2023-04-11T09:43:00.615Z,77.62
2023-04-11T09:45:28.650Z,75.20
2023-04-11T09:47:58.323Z,78.15
2023-04-11T09:50:26.944Z,76.14
2023-04-11T09:52:57.079Z,76.16
2023-04-11T09:55:26.110Z,77.93
2023-04-11T09:57:54.768Z,76.21
2023-04-11T10:00:24.397Z,75.48
2023-04-11T10:02:53.740Z,75.79
2023-04-11T10:05:27.098Z,77.24
2023-04-11T10:08:06.212Z,79.20
2023-04-11T10:10:33.233Z,77.95
2023-04-11T10:13:00.018Z,73.74
2023-04-11T10:15:27.192Z,72.66
2023-04-11T10:18:13.856Z,73.20
2023-04-11T10:20:45.321Z,72.72
2023-04-11T10:23:14.073Z,74.35
2023-04-11T10:25:51.786Z,71.56
2023-04-11T10:28:30.722Z,75.46
2023-04-11T10:31:04.797Z,74.28
2023-04-11T10:33:33.647Z,72.39
2023-04-11T10:36:12.475Z,73.63
2023-04-11T10:38:47.415Z,73.76
2023-04-11T10:41:25.688Z,70.98
2023-04-11T10:43:52.920Z,71.91
2023-04-11T10:46:22.031Z,69.96
2023-04-11T10:49:02.873Z,72.21
2023-04-11T10:51:31.620Z,71.06
2023-04-11T10:54:00.363Z,70.64
2023-04-11T10:56:50.742Z,68.36
2023-04-11T10:59:32.766Z,69.25
2023-04-11T11:02:03.443Z,67.87
2023-04-11T11:04:37.411Z,70.13
2023-04-11T11:07:06.437Z,68.60
2023-04-11T11:09:34.839Z,68.01
2023-04-11T11:12:08.623Z,68.27
2023-04-11T11:14:35.879Z,65.67
2023-04-11T11:17:03.568Z,65.34
2023-04-11T11:19:31.253Z,65.71
2023-04-11T11:22:03.871Z,64.95
2023-04-11T11:24:31.260Z,66.52
2023-04-11T11:26:58.512Z,65.57
2023-04-11T11:29:35.779Z,65.50
2023-04-11T11:32:04.105Z,63.50
2023-04-11T11:34:35.257Z,63.35
2023-04-11T11:37:06.694Z,64.17
2023-04-11T11:39:34.800Z,64.13
2023-04-11T11:42:02.149Z,63.13
2023-04-11T11:44:31.270Z,60.36
2023-04-11T11:47:02.220Z,60.27
2023-04-11T11:49:46.706Z,60.57
2023-04-11T11:52:40.687Z,61.98
2023-04-11T11:55:19.779Z,58.73
2023-04-11T11:57:47.775Z,58.71
2023-04-11T12:00:16.423Z,57.41
2023-04-11T12:02:44.717Z,58.16
2023-04-11T12:05:12.581Z,58.82
2023-04-11T12:07:40.678Z,58.99
2023-04-11T12:10:11.868Z,59.67
2023-04-11T12:12:41.204Z,60.49
2023-04-11T12:15:11.797Z,58.53
2023-04-11T12:17:39.102Z,61.05
2023-04-11T12:20:08.056Z,67.46
2023-04-11T12:22:35.771Z,70.64
2023-04-11T12:25:14.160Z,70.49
2023-04-11T12:27:42.787Z,67.43
2023-04-11T12:30:11.080Z,67.10
2023-04-11T12:32:38.666Z,92.58
2023-04-11T12:35:07.135Z,100.00
2023-04-11T12:37:35.183Z,100.00
2023-04-11T12:40:10.928Z,100.00
2023-04-11T12:42:53.580Z,100.00
2023-04-11T12:45:23.251Z,100.00
2023-04-11T12:47:50.204Z,100.00
2023-04-11T12:50:16.987Z,100.00
2023-04-11T12:52:43.669Z,100.00
2023-04-11T12:55:10.669Z,100.00
2023-04-11T12:57:37.342Z,100.00
2023-04-11T13:00:07.425Z,100.00
2023-04-11T13:02:42.032Z,100.00
2023-04-11T13:05:11.262Z,100.00
2023-04-11T13:07:38.044Z,100.00
2023-04-11T13:10:07.975Z,100.00
2023-04-11T13:12:39.824Z,100.00
2023-04-11T13:15:08.139Z,100.00
2023-04-11T13:17:35.193Z,100.00
2023-04-11T13:20:02.283Z,100.00
2023-04-11T13:22:28.909Z,100.00
2023-04-11T13:24:55.794Z,100.00
2023-04-11T13:27:23.131Z,100.00
2023-04-11T13:29:49.834Z,100.00
2023-04-11T13:32:16.632Z,100.00
2023-04-11T13:34:43.555Z,100.00
2023-04-11T13:37:10.329Z,100.00
2023-04-11T13:39:39.898Z,100.00
2023-04-11T13:42:06.562Z,100.00
2023-04-11T13:44:33.275Z,100.00
2023-04-11T13:47:00.055Z,100.00
2023-04-11T13:49:26.749Z,100.00
2023-04-11T13:51:53.386Z,100.00
2023-04-11T13:54:20.252Z,100.00
2023-04-11T13:56:46.874Z,100.00
2023-04-11T13:59:13.556Z,100.00
2023-04-11T14:04:56.780Z,100.00
2023-04-11T14:07:23.770Z,100.00
2023-04-11T14:09:50.793Z,100.00
2023-04-11T14:12:18.202Z,100.00
2023-04-11T14:14:44.819Z,98.95
2023-04-11T14:17:11.617Z,100.00
2023-04-11T14:19:38.327Z,100.00
2023-04-11T14:22:05.039Z,100.00
2023-04-11T14:24:31.748Z,82.91
2023-04-11T14:26:58.592Z,83.49
2023-04-11T14:29:26.509Z,81.62
2023-04-11T14:31:53.339Z,79.60
2023-04-11T14:34:20.037Z,74.89
2023-04-11T14:36:46.842Z,81.49
2023-04-11T14:39:13.565Z,82.38
2023-04-11T14:41:40.396Z,75.87
2023-04-11T14:44:07.263Z,83.77
2023-04-11T14:46:35.520Z,77.97
2023-04-11T14:49:03.131Z,73.79
2023-04-11T14:51:29.858Z,74.95
2023-04-11T14:53:57.071Z,82.64
2023-04-11T14:56:24.841Z,87.69
2023-04-11T14:58:52.291Z,90.76
2023-04-11T15:01:20.285Z,90.35
2023-04-11T15:03:47.407Z,95.59
2023-04-11T15:06:14.429Z,96.96
2023-04-11T15:08:41.330Z,99.03
2023-04-11T15:11:08.554Z,100.00
2023-04-11T15:13:35.284Z,100.00
2023-04-11T15:16:03.014Z,100.00
2023-04-11T15:18:31.119Z,100.00
2023-04-11T15:20:59.396Z,100.00
2023-04-11T15:23:26.634Z,100.00
2023-04-11T15:25:54.542Z,100.00
2023-04-11T15:28:22.324Z,100.00
2023-04-11T15:30:56.840Z,100.00
2023-04-11T15:33:24.418Z,100.00
2023-04-11T15:35:53.838Z,100.00
2023-04-11T15:38:21.458Z,100.00
2023-04-11T15:40:56.681Z,100.00
2023-04-11T15:43:24.053Z,100.00
2023-04-11T15:45:52.484Z,100.00
2023-04-11T15:48:19.208Z,100.00
2023-04-11T15:50:46.039Z,100.00
2023-04-11T15:53:12.897Z,100.00
2023-04-11T15:55:41.442Z,100.00
2023-04-11T15:58:08.673Z,100.00
2023-04-11T16:00:39.788Z,100.00
2023-04-11T16:03:08.743Z,100.00
2023-04-11T16:05:41.001Z,100.00
2023-04-11T16:08:07.974Z,100.00
2023-04-11T16:10:35.115Z,100.00
2023-04-11T16:13:02.562Z,100.00
2023-04-11T16:15:29.278Z,100.00
2023-04-11T16:17:56.115Z,100.00
2023-04-11T16:20:23.014Z,100.00
2023-04-11T16:22:49.712Z,100.00
2023-04-11T16:25:19.511Z,100.00
2023-04-11T16:27:46.456Z,100.00
2023-04-11T16:30:13.396Z,100.00
2023-04-11T16:32:40.094Z,100.00
2023-04-11T16:35:07.202Z,100.00
2023-04-11T16:37:33.954Z,100.00
2023-04-11T16:40:01.032Z,100.00
2023-04-11T16:42:27.762Z,100.00
2023-04-11T16:44:54.440Z,100.00
2023-04-11T16:47:26.326Z,100.00
2023-04-11T16:49:53.600Z,100.00
2023-04-11T16:52:21.230Z,100.00
2023-04-11T16:54:48.059Z,100.00
2023-04-11T16:57:14.705Z,100.00
2023-04-11T16:59:41.464Z,100.00
2023-04-11T17:02:08.166Z,100.00
2023-04-11T17:04:35.306Z,100.00
2023-04-11T17:07:02.118Z,100.00
2023-04-11T17:09:29.788Z,100.00
2023-04-11T17:11:57.810Z,100.00
2023-04-11T17:14:24.723Z,100.00
2023-04-11T17:16:51.714Z,100.00
2023-04-11T17:19:18.421Z,100.00
2023-04-11T17:21:45.104Z,100.00
2023-04-11T17:24:11.929Z,100.00
2023-04-11T17:26:38.631Z,100.00
2023-04-11T17:29:06.630Z,100.00
2023-04-11T17:31:34.097Z,100.00
2023-04-11T17:34:00.829Z,100.00
2023-04-11T17:36:28.450Z,100.00
2023-04-11T17:38:55.165Z,100.00
2023-04-11T17:41:23.008Z,100.00
2023-04-11T17:43:49.720Z,100.00
2023-04-11T17:46:16.424Z,100.00
2023-04-11T17:48:43.328Z,100.00
2023-04-11T17:51:10.019Z,100.00
2023-04-11T17:53:37.098Z,100.00
2023-04-11T17:56:06.077Z,100.00
2023-04-11T17:58:33.099Z,100.00
2023-04-11T18:00:59.850Z,100.00
2023-04-11T18:03:26.702Z,100.00
2023-04-11T18:05:54.630Z,100.00
2023-04-11T18:08:28.713Z,100.00
2023-04-11T18:11:00.436Z,100.00
2023-04-11T18:13:27.655Z,100.00
2023-04-11T18:15:54.593Z,100.00
2023-04-11T18:18:21.374Z,100.00
2023-04-11T18:20:48.529Z,100.00
2023-04-11T18:23:15.388Z,100.00
2023-04-11T18:25:42.152Z,100.00
2023-04-11T18:28:08.922Z,100.00
2023-04-11T18:30:35.723Z,100.00
2023-04-11T18:33:02.512Z,100.00
2023-04-11T18:35:29.249Z,100.00
2023-04-11T18:37:56.053Z,100.00
2023-04-11T18:40:22.917Z,100.00
2023-04-11T18:42:53.276Z,100.00
2023-04-11T18:45:22.019Z,100.00
2023-04-11T18:47:49.171Z,100.00
2023-04-11T18:50:17.912Z,100.00
2023-04-11T18:52:45.863Z,100.00
2023-04-11T18:55:14.315Z,100.00
2023-04-11T18:57:42.227Z,100.00
2023-04-11T19:00:18.905Z,100.00
2023-04-11T19:02:47.154Z,100.00
2023-04-11T19:05:14.628Z,100.00
2023-04-11T19:07:42.875Z,100.00
2023-04-11T19:10:11.293Z,100.00
2023-04-11T19:12:38.254Z,100.00
2023-04-11T19:15:09.356Z,100.00
2023-04-11T19:17:38.500Z,100.00
2023-04-11T19:20:13.399Z,100.00
2023-04-11T19:22:43.146Z,100.00
2023-04-11T19:25:11.444Z,100.00
2023-04-11T19:27:40.464Z,100.00
2023-04-11T19:30:08.884Z,100.00
2023-04-11T19:32:38.695Z,100.00
2023-04-11T19:35:08.880Z,100.00
2023-04-11T19:37:36.407Z,100.00
2023-04-11T19:40:07.345Z,100.00
2023-04-11T19:42:37.023Z,100.00
2023-04-11T19:45:04.870Z,100.00
2023-04-11T19:47:32.260Z,100.00
2023-04-11T19:50:01.112Z,100.00
2023-04-11T19:52:28.802Z,100.00
2023-04-11T19:54:56.992Z,100.00
2023-04-11T19:57:26.567Z,100.00
2023-04-11T19:59:53.386Z,100.00
2023-04-11T20:02:21.298Z,100.00
2023-04-11T20:04:48.258Z,100.00
2023-04-11T20:07:15.869Z,100.00
2023-04-11T20:09:42.556Z,100.00
2023-04-11T20:12:09.526Z,100.00
2023-04-11T20:14:38.097Z,100.00
2023-04-11T20:17:06.432Z,100.00
2023-04-11T20:19:33.358Z,100.00
2023-04-11T20:22:01.188Z,100.00
2023-04-11T20:24:28.305Z,100.00
2023-04-11T20:26:57.176Z,100.00
2023-04-11T20:29:24.877Z,100.00
2023-04-11T20:31:51.620Z,100.00
2023-04-11T20:34:18.311Z,100.00
2023-04-11T20:36:45.100Z,100.00
2023-04-11T20:39:11.863Z,100.00
2023-04-11T20:41:40.633Z,100.00
2023-04-11T20:44:07.436Z,100.00
2023-04-11T20:46:39.621Z,100.00
2023-04-11T20:49:07.211Z,100.00
2023-04-11T20:51:34.733Z,100.00
2023-04-11T20:54:01.529Z,100.00
2023-04-11T20:56:28.499Z,100.00
2023-04-11T20:58:55.170Z,100.00
2023-04-11T21:01:22.697Z,100.00
2023-04-11T21:03:51.512Z,100.00
2023-04-11T21:06:18.326Z,100.00
2023-04-11T21:08:45.056Z,100.00
2023-04-11T21:11:11.750Z,100.00
2023-04-11T21:13:38.420Z,100.00
2023-04-11T21:16:05.730Z,100.00
2023-04-11T21:18:32.554Z,100.00
2023-04-11T21:20:59.345Z,100.00
2023-04-11T21:23:26.044Z,100.00
2023-04-11T21:25:52.732Z,100.00
2023-04-11T21:28:19.604Z,100.00
2023-04-11T21:30:46.436Z,100.00
2023-04-11T21:33:13.208Z,100.00
2023-04-11T21:35:39.914Z,100.00
2023-04-11T21:38:06.694Z,100.00
2023-04-11T21:40:33.393Z,100.00
2023-04-11T21:43:00.524Z,100.00
2023-04-11T21:45:27.608Z,100.00
2023-04-11T21:47:54.567Z,100.00
2023-04-11T21:50:21.324Z,100.00
2023-04-11T21:52:48.130Z,100.00
2023-04-11T21:55:15.593Z,100.00
2023-04-11T21:57:42.346Z,100.00
2023-04-11T22:00:11.161Z,100.00
2023-04-11T22:02:38.876Z,100.00
2023-04-11T22:05:08.886Z,100.00
2023-04-11T22:07:48.703Z,100.00
2023-04-11T22:10:22.522Z,100.00
2023-04-11T22:12:50.014Z,100.00
2023-04-11T22:15:18.453Z,100.00
2023-04-11T22:17:50.630Z,100.00
2023-04-11T22:20:18.440Z,100.00
2023-04-11T22:22:45.390Z,100.00
2023-04-11T22:25:12.163Z,100.00
2023-04-11T22:27:38.968Z,100.00
2023-04-11T22:30:07.041Z,100.00
2023-04-11T22:32:34.140Z,100.00
2023-04-11T22:35:01.338Z,100.00
2023-04-11T22:37:28.107Z,100.00
2023-04-11T22:39:55.173Z,100.00
2023-04-11T22:42:21.954Z,100.00
2023-04-11T22:44:48.667Z,100.00
2023-04-11T22:47:16.631Z,100.00
2023-04-11T22:49:44.992Z,100.00
2023-04-11T22:52:15.758Z,100.00
2023-04-11T22:54:43.203Z,100.00
2023-04-11T22:57:10.472Z,100.00
2023-04-11T22:59:37.237Z,100.00
2023-04-11T23:02:04.108Z,100.00
2023-04-11T23:04:32.139Z,100.00
2023-04-11T23:07:00.186Z,100.00
2023-04-11T23:09:28.206Z,100.00
2023-04-11T23:11:55.016Z,100.00
2023-04-11T23:14:22.520Z,100.00
2023-04-11T23:16:49.449Z,100.00
2023-04-11T23:19:17.236Z,100.00
2023-04-11T23:21:44.727Z,100.00
2023-04-11T23:24:11.421Z,100.00
2023-04-11T23:26:38.128Z,100.00
2023-04-11T23:29:04.825Z,100.00
2023-04-11T23:31:32.697Z,100.00
2023-04-11T23:34:00.758Z,100.00
2023-04-11T23:36:28.024Z,100.00
2023-04-11T23:38:54.964Z,100.00
2023-04-11T23:41:21.754Z,100.00
2023-04-11T23:43:48.505Z,100.00
2023-04-11T23:46:16.899Z,100.00
2023-04-11T23:48:44.358Z,100.00
2023-04-11T23:51:11.073Z,100.00
2023-04-11T23:53:37.735Z,100.00
2023-04-11T23:56:04.866Z,100.00
2023-04-11T23:58:31.604Z,100.00
